createdAt,value
2019-01-11T00:01:36.632Z,2.54
2019-01-11T00:04:05.694Z,2.54
2019-01-11T00:06:34.751Z,2.56
2019-01-11T00:09:03.838Z,2.58
2019-01-11T00:11:32.900Z,2.58
2019-01-11T00:14:01.969Z,2.55
2019-01-11T00:16:31.059Z,2.55
2019-01-11T00:19:00.116Z,2.53
2019-01-11T00:21:29.177Z,2.52
2019-01-11T00:24:02.746Z,2.49
2019-01-11T00:26:31.800Z,2.47
2019-01-11T00:29:00.882Z,2.46
2019-01-11T00:31:29.927Z,2.45
2019-01-11T00:33:58.993Z,2.42
2019-01-11T00:36:28.071Z,2.41
2019-01-11T00:38:57.132Z,2.40
2019-01-11T00:41:26.188Z,2.37
2019-01-11T00:43:55.288Z,2.37
2019-01-11T00:46:24.354Z,2.35
2019-01-11T00:48:53.406Z,2.32
2019-01-11T00:51:22.505Z,2.32
2019-01-11T00:53:51.568Z,2.32
2019-01-11T00:56:20.618Z,2.32
2019-01-11T00:58:49.697Z,2.31
2019-01-11T01:01:18.765Z,2.29
2019-01-11T01:03:47.809Z,2.27
2019-01-11T01:06:16.911Z,2.26
2019-01-11T01:08:45.966Z,2.25
2019-01-11T01:11:15.020Z,2.25
2019-01-11T01:13:44.115Z,2.23
2019-01-11T01:16:13.160Z,2.21
2019-01-11T01:18:42.221Z,2.21
2019-01-11T01:21:11.307Z,2.20
2019-01-11T01:23:40.359Z,2.20
2019-01-11T01:26:09.416Z,2.20
2019-01-11T01:28:38.511Z,2.21
2019-01-11T01:31:07.550Z,2.22
2019-01-11T01:33:36.621Z,2.21
2019-01-11T01:36:05.704Z,2.18
2019-01-11T01:38:34.760Z,2.16
2019-01-11T01:41:03.819Z,2.12
2019-01-11T01:43:32.907Z,2.07
2019-01-11T01:46:01.963Z,2.01
2019-01-11T01:48:31.016Z,1.97
2019-01-11T01:51:00.122Z,1.95
2019-01-11T01:53:29.173Z,1.90
2019-01-11T01:55:58.225Z,1.88
2019-01-11T01:58:27.312Z,1.85
2019-01-11T02:00:56.362Z,1.83
2019-01-11T02:03:25.399Z,1.83
2019-01-11T02:05:54.477Z,1.82
2019-01-11T02:08:23.526Z,1.80
2019-01-11T02:10:52.582Z,1.81
2019-01-11T02:13:21.678Z,1.82
2019-01-11T02:15:50.712Z,1.83
2019-01-11T02:18:19.756Z,1.84
2019-01-11T02:20:48.828Z,1.83
2019-01-11T02:23:17.863Z,1.84
2019-01-11T02:25:46.917Z,1.85
2019-01-11T02:28:15.983Z,1.87
2019-01-11T02:30:45.028Z,1.90
2019-01-11T02:33:14.070Z,1.92
2019-01-11T02:35:43.172Z,1.89
2019-01-11T02:38:12.208Z,1.92
2019-01-11T02:40:41.265Z,1.95
2019-01-11T02:43:10.326Z,1.96
2019-01-11T02:45:39.380Z,1.97
2019-01-11T02:48:08.426Z,2.00
2019-01-11T02:50:37.498Z,1.98
2019-01-11T02:53:06.529Z,1.99
2019-01-11T02:55:35.571Z,2.01
2019-01-11T02:58:04.675Z,2.01
2019-01-11T03:00:33.746Z,1.95
2019-01-11T03:03:02.760Z,1.98
2019-01-11T03:05:31.836Z,2.00
2019-01-11T03:08:00.880Z,1.97
2019-01-11T03:10:29.924Z,1.97
2019-01-11T03:12:59.002Z,1.92
2019-01-11T03:15:28.049Z,1.95
2019-01-11T03:17:57.112Z,1.94
2019-01-11T03:20:26.213Z,1.95
2019-01-11T03:22:55.247Z,1.93
2019-01-11T03:25:24.287Z,1.90
2019-01-11T03:27:53.361Z,1.88
2019-01-11T03:30:22.403Z,1.82
2019-01-11T03:32:51.450Z,1.83
2019-01-11T03:35:20.602Z,1.80
2019-01-11T03:37:49.650Z,1.78
2019-01-11T03:40:18.698Z,1.74
2019-01-11T03:42:47.810Z,1.73
2019-01-11T03:45:16.857Z,1.69
2019-01-11T03:47:45.909Z,1.67
2019-01-11T03:50:14.979Z,1.67
2019-01-11T03:52:44.019Z,1.65
2019-01-11T03:55:13.059Z,1.61
2019-01-11T03:57:42.137Z,1.66
2019-01-11T04:00:12.113Z,1.66
2019-01-11T04:02:41.157Z,1.67
2019-01-11T04:05:10.296Z,1.65
2019-01-11T04:07:40.126Z,1.63
2019-01-11T04:10:09.159Z,1.65
2019-01-11T04:12:38.241Z,1.63
2019-01-11T04:15:07.285Z,1.63
2019-01-11T04:17:36.333Z,1.63
2019-01-11T04:20:05.415Z,1.65
2019-01-11T04:22:34.460Z,1.62
2019-01-11T04:25:22.321Z,1.62
2019-01-11T04:27:51.550Z,1.61
2019-01-11T04:30:20.592Z,1.59
2019-01-11T04:32:49.763Z,1.60
2019-01-11T04:35:18.849Z,1.56
2019-01-11T04:37:47.886Z,1.55
2019-01-11T04:40:16.958Z,1.53
2019-01-11T04:42:46.020Z,1.51
2019-01-11T04:45:15.082Z,1.48
2019-01-11T04:47:44.173Z,1.43
2019-01-11T04:50:13.219Z,1.44
2019-01-11T04:52:42.270Z,1.43
2019-01-11T04:55:11.345Z,1.38
2019-01-11T04:57:40.394Z,1.36
2019-01-11T05:00:25.525Z,1.38
2019-01-11T05:02:54.564Z,1.37
2019-01-11T05:05:23.602Z,1.34
2019-01-11T05:07:53.589Z,1.33
2019-01-11T05:10:22.633Z,1.31
2019-01-11T05:12:51.675Z,1.30
2019-01-11T05:15:38.653Z,1.31
2019-01-11T05:18:07.692Z,1.33
2019-01-11T05:20:36.731Z,1.29
2019-01-11T05:23:05.917Z,1.29
2019-01-11T05:25:34.969Z,1.27
2019-01-11T05:28:04.022Z,1.30
2019-01-11T05:30:33.110Z,1.24
2019-01-11T05:33:02.166Z,1.30
2019-01-11T05:35:31.234Z,1.32
2019-01-11T05:38:00.331Z,1.33
2019-01-11T05:40:29.424Z,1.33
2019-01-11T05:42:58.486Z,1.35
2019-01-11T05:45:27.590Z,1.39
2019-01-11T05:47:56.668Z,1.41
2019-01-11T05:50:25.714Z,1.44
2019-01-11T05:52:54.790Z,1.44
2019-01-11T05:55:23.828Z,1.49
2019-01-11T05:57:53.682Z,1.52
2019-01-11T06:00:22.775Z,1.53
2019-01-11T06:02:51.827Z,1.55
2019-01-11T06:05:20.890Z,1.57
2019-01-11T06:07:49.998Z,1.58
2019-01-11T06:10:19.855Z,1.61
2019-01-11T06:12:48.908Z,1.62
2019-01-11T06:15:18.007Z,1.63
2019-01-11T06:17:47.308Z,1.65
2019-01-11T06:20:16.383Z,1.63
2019-01-11T06:22:45.462Z,1.62
2019-01-11T06:25:14.517Z,1.60
2019-01-11T06:27:43.586Z,1.60
2019-01-11T06:30:12.865Z,1.60
2019-01-11T06:32:41.927Z,1.63
2019-01-11T06:35:35.827Z,1.63
2019-01-11T06:38:04.878Z,1.62
2019-01-11T06:40:33.964Z,1.58
2019-01-11T06:43:03.634Z,1.55
2019-01-11T06:45:32.072Z,1.58
2019-01-11T06:48:01.302Z,1.57
2019-01-11T06:50:36.272Z,1.56
2019-01-11T06:52:59.434Z,1.51
2019-01-11T06:55:28.532Z,1.49
2019-01-11T06:57:57.591Z,1.44
2019-01-11T07:00:26.653Z,1.42
2019-01-11T07:02:55.747Z,1.41
2019-01-11T07:05:24.806Z,1.40
2019-01-11T07:07:53.875Z,1.38
2019-01-11T07:10:23.818Z,1.39
2019-01-11T07:12:52.880Z,1.38
2019-01-11T07:15:41.129Z,1.36
2019-01-11T07:18:10.185Z,1.35
2019-01-11T07:20:42.911Z,1.40
2019-01-11T07:23:08.341Z,1.44
2019-01-11T07:25:37.405Z,1.51
2019-01-11T07:28:06.454Z,1.57
2019-01-11T07:30:35.546Z,1.67
2019-01-11T07:33:04.616Z,1.76
2019-01-11T07:35:34.644Z,1.86
2019-01-11T07:38:03.726Z,2.03
2019-01-11T07:40:32.776Z,2.21
2019-01-11T07:43:01.838Z,2.41
2019-01-11T07:45:30.930Z,2.61
2019-01-11T07:47:59.983Z,2.79
2019-01-11T07:50:29.041Z,3.01
2019-01-11T07:52:58.159Z,3.15
2019-01-11T07:55:27.209Z,3.28
2019-01-11T07:57:56.267Z,3.32
2019-01-11T08:00:25.345Z,3.36
2019-01-11T08:02:54.405Z,3.36
2019-01-11T08:05:23.479Z,3.29
2019-01-11T08:07:52.527Z,3.24
2019-01-11T08:10:21.574Z,3.27
2019-01-11T08:12:50.630Z,3.27
2019-01-11T08:15:19.724Z,3.28
2019-01-11T08:17:48.768Z,3.21
2019-01-11T08:20:17.805Z,3.20
2019-01-11T08:22:46.890Z,3.21
2019-01-11T08:25:15.925Z,3.22
2019-01-11T08:27:44.970Z,3.25
2019-01-11T08:30:14.111Z,3.26
2019-01-11T08:32:43.155Z,3.27
2019-01-11T08:35:23.362Z,3.28
2019-01-11T08:37:52.419Z,3.27
2019-01-11T08:40:21.478Z,3.27
2019-01-11T08:42:50.593Z,3.25
2019-01-11T08:45:19.607Z,3.28
2019-01-11T08:47:48.654Z,3.32
2019-01-11T08:50:18.597Z,3.34
2019-01-11T08:52:47.645Z,3.34
2019-01-11T08:55:16.707Z,3.32
2019-01-11T08:57:46.181Z,3.35
2019-01-11T09:00:15.260Z,3.35
2019-01-11T09:02:44.318Z,3.37
2019-01-11T09:05:13.384Z,3.36
2019-01-11T09:07:42.431Z,3.42
2019-01-11T09:10:11.489Z,3.49
2019-01-11T09:12:41.361Z,3.55
2019-01-11T09:15:10.424Z,3.58
2019-01-11T09:17:43.455Z,3.62
2019-01-11T09:20:12.504Z,3.65
2019-01-11T09:22:41.546Z,3.66
2019-01-11T09:25:10.616Z,3.66
2019-01-11T09:27:39.680Z,3.63
2019-01-11T09:30:08.727Z,3.63
2019-01-11T09:32:37.811Z,3.63
2019-01-11T09:35:06.854Z,3.66
2019-01-11T09:37:35.902Z,3.65
2019-01-11T09:40:05.044Z,3.68
2019-01-11T09:42:34.099Z,3.67
2019-01-11T09:45:03.132Z,3.71
2019-01-11T09:47:32.209Z,3.73
2019-01-11T09:50:01.310Z,3.77
2019-01-11T09:52:30.358Z,3.79
2019-01-11T09:54:59.445Z,3.82
2019-01-11T09:57:28.484Z,3.79
2019-01-11T09:59:57.530Z,3.80
2019-01-11T10:02:32.178Z,3.79
2019-01-11T10:05:01.174Z,3.74
2019-01-11T10:07:30.230Z,3.67
2019-01-11T10:09:59.316Z,3.66
2019-01-11T10:12:28.367Z,3.65
2019-01-11T10:14:58.239Z,3.64
2019-01-11T10:17:27.351Z,3.67
2019-01-11T10:19:56.381Z,3.66
2019-01-11T10:22:25.419Z,3.65
2019-01-11T10:24:54.561Z,3.65
2019-01-11T10:27:23.613Z,3.66
2019-01-11T10:29:52.666Z,3.69
2019-01-11T10:32:21.754Z,3.72
2019-01-11T10:34:50.788Z,3.64
2019-01-11T10:37:19.830Z,3.62
2019-01-11T10:39:48.906Z,3.64
2019-01-11T10:42:17.963Z,3.62
2019-01-11T10:44:47.019Z,3.66
2019-01-11T10:47:16.119Z,3.66
2019-01-11T10:49:45.190Z,3.62
2019-01-11T10:52:14.244Z,3.63
2019-01-11T10:55:01.308Z,3.68
2019-01-11T10:57:30.362Z,3.68
2019-01-11T10:59:59.401Z,3.72
2019-01-11T11:02:28.541Z,3.72
2019-01-11T11:04:57.589Z,3.77
2019-01-11T11:07:26.626Z,3.78
2019-01-11T11:09:55.704Z,3.79
2019-01-11T11:12:24.758Z,3.76
2019-01-11T11:14:53.798Z,3.72
2019-01-11T11:17:22.892Z,3.73
2019-01-11T11:19:51.938Z,3.71
2019-01-11T11:22:20.974Z,3.76
2019-01-11T11:24:50.080Z,3.79
2019-01-11T11:27:19.135Z,3.81
2019-01-11T11:29:48.198Z,3.78
2019-01-11T11:32:17.281Z,3.77
2019-01-11T11:34:46.359Z,3.82
2019-01-11T11:37:17.802Z,3.80
2019-01-11T11:39:44.494Z,3.80
2019-01-11T11:42:16.845Z,3.85
2019-01-11T11:44:42.882Z,3.88
2019-01-11T11:47:11.978Z,3.94
2019-01-11T11:49:41.038Z,3.97
2019-01-11T11:52:10.095Z,4.02
2019-01-11T11:54:39.209Z,4.07
2019-01-11T11:57:08.273Z,4.16
2019-01-11T11:59:37.319Z,4.15
2019-01-11T12:02:06.392Z,4.16
2019-01-11T12:04:35.452Z,4.18
2019-01-11T12:07:07.625Z,4.20
2019-01-11T12:09:33.618Z,4.22
2019-01-11T12:12:02.682Z,4.20
2019-01-11T12:14:56.010Z,4.16
2019-01-11T12:17:25.053Z,4.20
2019-01-11T12:19:57.042Z,4.21
2019-01-11T12:22:23.181Z,4.14
2019-01-11T12:25:17.904Z,4.10
2019-01-11T12:27:47.361Z,4.08
2019-01-11T12:30:16.229Z,4.05
2019-01-11T12:32:45.283Z,4.01
2019-01-11T12:35:14.328Z,3.98
2019-01-11T12:37:43.412Z,3.95
2019-01-11T12:40:12.468Z,3.95
2019-01-11T12:42:41.533Z,3.91
2019-01-11T12:45:10.659Z,3.89
2019-01-11T12:47:39.722Z,3.87
2019-01-11T12:50:08.793Z,3.88
2019-01-11T12:52:37.874Z,3.88
2019-01-11T12:55:06.986Z,3.89
2019-01-11T12:57:36.043Z,3.88
2019-01-11T13:00:05.129Z,3.89
2019-01-11T13:02:34.180Z,3.91
2019-01-11T13:05:03.235Z,3.90
2019-01-11T13:07:32.329Z,3.91
2019-01-11T13:10:01.391Z,3.93
2019-01-11T13:12:30.442Z,3.93
2019-01-11T13:14:59.525Z,3.94
2019-01-11T13:17:29.626Z,3.93
2019-01-11T13:19:58.678Z,3.92
2019-01-11T13:22:27.798Z,3.94
2019-01-11T13:24:56.851Z,3.91
2019-01-11T13:27:25.899Z,3.93
2019-01-11T13:29:54.997Z,3.95
2019-01-11T13:32:24.070Z,3.93
2019-01-11T13:34:53.133Z,3.90
2019-01-11T13:37:22.212Z,3.86
2019-01-11T13:39:51.292Z,3.87
2019-01-11T13:42:20.354Z,3.89
2019-01-11T13:44:49.464Z,3.92
2019-01-11T13:47:18.535Z,3.89
2019-01-11T13:49:47.601Z,3.89
2019-01-11T13:52:16.738Z,3.89
2019-01-11T13:54:45.793Z,3.87
2019-01-11T13:57:14.855Z,3.81
2019-01-11T13:59:43.947Z,3.82
2019-01-11T14:02:12.993Z,3.87
2019-01-11T14:04:42.074Z,3.87
2019-01-11T14:07:11.315Z,3.86
2019-01-11T14:09:40.382Z,3.85
2019-01-11T14:12:09.439Z,3.85
2019-01-11T14:14:38.520Z,3.87
2019-01-11T14:17:07.583Z,3.88
2019-01-11T14:19:37.470Z,3.84
2019-01-11T14:22:06.558Z,3.84
2019-01-11T14:24:35.626Z,3.89
2019-01-11T14:27:04.677Z,3.90
2019-01-11T14:29:33.808Z,3.91
2019-01-11T14:32:02.870Z,3.93
2019-01-11T14:34:31.927Z,3.94
2019-01-11T14:37:01.021Z,3.96
2019-01-11T14:39:31.016Z,3.97
2019-01-11T14:42:00.059Z,3.97
2019-01-11T14:44:29.152Z,3.98
2019-01-11T14:46:58.200Z,3.99
2019-01-11T14:49:27.252Z,4.01
2019-01-11T14:51:56.334Z,4.04
2019-01-11T14:54:33.443Z,4.06
2019-01-11T14:57:02.572Z,4.08
2019-01-11T14:59:31.618Z,4.11
2019-01-11T15:02:00.650Z,4.14
2019-01-11T15:04:29.736Z,4.14
2019-01-11T15:06:58.792Z,4.20
2019-01-11T15:09:27.850Z,4.20
2019-01-11T15:11:56.978Z,4.22
2019-01-11T15:14:26.038Z,4.23
2019-01-11T15:16:55.094Z,4.25
2019-01-11T15:19:24.173Z,4.27
2019-01-11T15:21:53.237Z,4.28
2019-01-11T15:24:22.293Z,4.28
2019-01-11T15:26:51.427Z,4.29
2019-01-11T15:29:20.488Z,4.26
2019-01-11T15:31:49.537Z,4.29
2019-01-11T15:34:19.454Z,4.27
2019-01-11T15:36:48.508Z,4.28
2019-01-11T15:39:17.562Z,4.28
2019-01-11T15:41:46.640Z,4.30
2019-01-11T15:44:15.685Z,4.32
2019-01-11T15:46:44.746Z,4.33
2019-01-11T15:49:13.830Z,4.32
2019-01-11T15:51:42.878Z,4.32
2019-01-11T15:54:24.186Z,4.33
2019-01-11T15:56:53.235Z,4.34
2019-01-11T15:59:22.289Z,4.34
2019-01-11T16:01:51.376Z,4.35
2019-01-11T16:04:20.442Z,4.37
2019-01-11T16:06:49.507Z,4.39
2019-01-11T16:09:20.398Z,4.40
2019-01-11T16:11:52.050Z,4.43
2019-01-11T16:14:28.735Z,4.43
2019-01-11T16:16:57.797Z,4.47
2019-01-11T16:19:26.874Z,4.48
2019-01-11T16:21:56.758Z,4.50
2019-01-11T16:24:25.815Z,4.53
2019-01-11T16:26:54.882Z,4.53
2019-01-11T16:29:23.967Z,4.55
2019-01-11T16:31:53.036Z,4.54
2019-01-11T16:37:27.084Z,4.55
2019-01-11T16:39:56.241Z,4.56
2019-01-11T16:42:25.312Z,4.58
2019-01-11T16:45:09.579Z,4.62
2019-01-11T16:47:38.632Z,4.62
2019-01-11T16:50:07.681Z,4.62
2019-01-11T16:52:36.786Z,4.65
2019-01-11T16:55:05.857Z,4.66
2019-01-11T16:57:34.913Z,4.67
2019-01-11T17:00:03.995Z,4.69
2019-01-11T17:02:36.595Z,4.72
2019-01-11T17:05:02.171Z,4.71
2019-01-11T17:07:31.268Z,4.73
2019-01-11T17:10:00.400Z,4.70
2019-01-11T17:12:29.401Z,4.70
2019-01-11T17:14:58.530Z,4.70
2019-01-11T17:17:27.586Z,4.72
2019-01-11T17:19:56.653Z,4.75
2019-01-11T17:22:25.761Z,4.77
2019-01-11T17:24:54.861Z,4.76
2019-01-11T17:27:23.946Z,4.79
2019-01-11T17:29:53.060Z,4.80
2019-01-11T17:32:22.194Z,4.79
2019-01-11T17:34:51.254Z,4.82
2019-01-11T17:37:20.425Z,4.82
2019-01-11T17:39:49.526Z,4.83
2019-01-11T17:42:18.590Z,4.85
2019-01-11T17:45:12.203Z,4.86
2019-01-11T17:47:41.271Z,4.85
2019-01-11T17:50:14.866Z,4.86
2019-01-11T17:52:44.133Z,4.88
2019-01-11T17:55:13.239Z,4.89
2019-01-11T17:57:42.296Z,4.90
2019-01-11T18:00:11.363Z,4.91
2019-01-11T18:02:40.450Z,4.93
2019-01-11T18:05:14.927Z,4.93
2019-01-11T18:07:44.022Z,4.96
2019-01-11T18:10:13.957Z,4.97
2019-01-11T18:12:42.147Z,4.98
2019-01-11T18:15:11.251Z,5.00
2019-01-11T18:17:40.320Z,5.02
2019-01-11T18:20:10.836Z,5.03
2019-01-11T18:22:40.001Z,5.04
2019-01-11T18:25:09.074Z,5.05
2019-01-11T18:27:38.141Z,5.05
2019-01-11T18:30:08.206Z,5.05
2019-01-11T18:32:37.267Z,5.06
2019-01-11T18:35:06.362Z,5.07
2019-01-11T18:37:35.454Z,5.09
2019-01-11T18:40:04.512Z,5.09
2019-01-11T18:42:33.566Z,5.11
2019-01-11T18:45:02.669Z,5.12
2019-01-11T18:47:31.728Z,5.11
2019-01-11T18:50:00.777Z,5.11
2019-01-11T18:52:29.890Z,5.12
2019-01-11T18:54:58.948Z,5.13
2019-01-11T18:57:28.007Z,5.14
2019-01-11T18:59:57.136Z,5.15
2019-01-11T19:02:26.152Z,5.15
2019-01-11T19:04:55.205Z,5.14
2019-01-11T19:07:24.831Z,5.14
2019-01-11T19:09:54.018Z,5.14
2019-01-11T19:12:23.198Z,5.12
2019-01-11T19:14:52.231Z,5.11
2019-01-11T19:17:21.281Z,5.08
2019-01-11T19:19:50.351Z,5.01
2019-01-11T19:22:19.445Z,4.94
2019-01-11T19:24:48.515Z,4.87
2019-01-11T19:27:17.577Z,4.79
2019-01-11T19:29:46.656Z,4.71
2019-01-11T19:32:15.710Z,4.61
2019-01-11T19:34:44.762Z,4.50
2019-01-11T19:37:13.884Z,4.37
2019-01-11T19:39:42.956Z,4.29
2019-01-11T19:42:12.023Z,4.24
2019-01-11T19:44:41.120Z,4.21
2019-01-11T19:47:10.192Z,4.19
2019-01-11T19:49:39.252Z,4.16
2019-01-11T19:52:08.334Z,4.12
2019-01-11T19:54:41.714Z,4.07
2019-01-11T19:57:10.821Z,4.02
2019-01-11T19:59:39.877Z,3.96
2019-01-11T20:02:08.946Z,3.89
2019-01-11T20:04:38.031Z,3.83
2019-01-11T20:07:07.099Z,3.79
2019-01-11T20:09:36.154Z,3.77
2019-01-11T20:12:05.259Z,3.74
2019-01-11T20:14:34.314Z,3.71
2019-01-11T20:17:03.375Z,3.67
2019-01-11T20:19:32.486Z,3.61
2019-01-11T20:22:01.544Z,3.57
2019-01-11T20:24:30.642Z,3.51
2019-01-11T20:26:59.723Z,3.46
2019-01-11T20:29:28.770Z,3.42
2019-01-11T20:31:57.821Z,3.37
2019-01-11T20:34:26.895Z,3.34
2019-01-11T20:36:55.965Z,3.29
2019-01-11T20:39:25.019Z,3.23
2019-01-11T20:41:54.142Z,3.19
2019-01-11T20:44:27.859Z,3.14
2019-01-11T20:46:56.953Z,3.09
2019-01-11T20:49:26.037Z,3.05
2019-01-11T20:51:55.102Z,3.01
2019-01-11T20:54:24.193Z,2.95
2019-01-11T20:56:53.254Z,2.91
2019-01-11T20:59:22.318Z,2.88
2019-01-11T21:01:51.472Z,2.84
2019-01-11T21:04:20.544Z,2.80
2019-01-11T21:06:49.637Z,2.77
2019-01-11T21:09:18.718Z,2.73
2019-01-11T21:11:47.787Z,2.69
2019-01-11T21:14:16.851Z,2.65
2019-01-11T21:16:45.939Z,2.63
2019-01-11T21:19:15.009Z,2.59
2019-01-11T21:21:44.056Z,2.57
2019-01-11T21:24:13.206Z,2.56
2019-01-11T21:26:42.519Z,2.53
2019-01-11T21:29:11.594Z,2.53
2019-01-11T21:31:40.692Z,2.50
2019-01-11T21:34:09.800Z,2.49
2019-01-11T21:36:38.964Z,2.48
2019-01-11T21:39:08.082Z,2.45
2019-01-11T21:41:37.185Z,2.42
2019-01-11T21:44:06.249Z,2.40
2019-01-11T21:46:35.341Z,2.39
2019-01-11T21:49:04.401Z,2.37
2019-01-11T21:51:33.468Z,2.35
2019-01-11T21:57:08.105Z,2.28
2019-01-11T21:59:37.207Z,2.25
2019-01-11T22:02:06.282Z,2.22
2019-01-11T22:04:35.392Z,2.21
2019-01-11T22:07:04.469Z,2.20
2019-01-11T22:09:33.525Z,2.18
2019-01-11T22:12:02.587Z,2.18
2019-01-11T22:14:31.690Z,2.17
2019-01-11T22:17:00.750Z,2.16
2019-01-11T22:19:29.812Z,2.16
2019-01-11T22:21:58.898Z,2.14
2019-01-11T22:27:23.754Z,2.12
2019-01-11T22:29:52.815Z,2.12
2019-01-11T22:32:21.877Z,2.10
2019-01-11T22:34:51.017Z,2.10
2019-01-11T22:37:20.094Z,2.09
2019-01-11T22:39:49.151Z,2.07
2019-01-11T22:42:18.411Z,2.05
2019-01-11T22:44:47.683Z,2.03
2019-01-11T22:47:16.730Z,2.02
2019-01-11T22:49:45.829Z,2.02
2019-01-11T22:52:14.888Z,2.01
2019-01-11T22:54:43.940Z,2.01
2019-01-11T22:57:13.586Z,1.99
2019-01-11T22:59:42.110Z,1.98
2019-01-11T23:02:11.169Z,1.96
2019-01-11T23:04:40.253Z,1.95
2019-01-11T23:07:09.306Z,1.94
2019-01-11T23:09:38.375Z,1.90
2019-01-11T23:12:09.370Z,1.90
2019-01-11T23:14:38.413Z,1.88
2019-01-11T23:17:07.467Z,1.86
2019-01-11T23:19:36.627Z,1.85
2019-01-11T23:22:05.685Z,1.83
2019-01-11T23:24:34.741Z,1.80
2019-01-11T23:27:03.888Z,1.79
2019-01-11T23:29:33.042Z,1.78
2019-01-11T23:32:02.110Z,1.76
2019-01-11T23:34:31.557Z,1.73
2019-01-11T23:37:00.605Z,1.71
2019-01-11T23:39:29.658Z,1.70
2019-01-11T23:41:58.746Z,1.68
2019-01-11T23:44:27.792Z,1.67
2019-01-11T23:46:56.844Z,1.66
2019-01-11T23:49:25.919Z,1.65
2019-01-11T23:51:54.983Z,1.65
2019-01-11T23:54:28.966Z,1.65
2019-01-11T23:56:58.020Z,1.64
2019-01-11T23:59:27.111Z,1.63
